首页
METAR-TAF:

METAR-TAF

机场 :

Land's End, 英格兰

纬度: 50-06-10N, 经度: 005-40-14W, 海拔: 122米

当前天气观测

该预报发布于13小时和47分钟前的17:20 UTC
风速8节,风向西北
温度 10°C
湿度 82%
气压 1004 hPa
能见度10公里或以上
少量云层高于1400英尺

METAR: EGHC 191720Z 32008KT 9999 FEW014 10/07 Q1004

时间: 08:07 (07:07 UTC)

预报

该预报发布于15小时和10分钟前的15:57 UTC
预报有效从19日的 15点(UTC)到 19日的 18点(UTC)
风速12节,风向西转西北
能见度10公里或以上
散云层高于2500英尺
短暂存在
从 19日的 15点(UTC)到 19日的 18点(UTC)
能見度: 6000
阵雨
几率 30% :
短暂存在
从 19日的 15点(UTC)到 19日的 18点(UTC)
能見度: 3000
多云层高于1000英尺
多云层高于2000英尺, 积雨云.
大阵雨

TAF: EGHC 191557Z 1915/1918 30012KT 9999 SCT025 TEMPO 1915/1918 6000 SHRA PROB30 TEMPO 1915/1918 3000 +SHRA BKN010 BKN020CB

超过4000个机场的气象观测和天气预报(METAR&TAF报告)。

可查询的气象台以黄色和红色小点在地图上表示。

将鼠标移到小点上方,可查看气象台名称。

然后点击查看天气观测和预报。

如需切换地图:点击带黑十字的绿色按钮放大地图;点击带横线的绿色按钮缩小地图;或者点击绿色箭头查看邻近地区的地图。


METAR-TAF: